createdAt,value
2023-06-23T00:00:29.214Z,69.90
2023-06-23T00:03:17.079Z,70.08
2023-06-23T00:05:45.312Z,69.70
2023-06-23T00:08:13.301Z,69.59
2023-06-23T00:10:41.258Z,69.82
2023-06-23T00:13:10.558Z,70.43
2023-06-23T00:15:38.653Z,70.12
2023-06-23T00:18:06.893Z,69.77
2023-06-23T00:20:34.794Z,70.27
2023-06-23T00:23:03.350Z,70.32
2023-06-23T00:25:31.575Z,69.65
2023-06-23T00:28:01.333Z,70.27
2023-06-23T00:30:29.295Z,70.41
2023-06-23T00:32:57.348Z,70.56
2023-06-23T00:35:25.437Z,70.20
2023-06-23T00:37:54.844Z,70.18
2023-06-23T00:40:24.962Z,70.48
2023-06-23T00:42:56.203Z,70.30
2023-06-23T00:45:25.193Z,69.74
2023-06-23T00:47:54.035Z,70.05
2023-06-23T00:50:23.195Z,70.21
2023-06-23T00:52:53.613Z,70.49
2023-06-23T00:55:23.311Z,70.49
2023-06-23T00:57:53.949Z,70.45
2023-06-23T01:00:23.404Z,70.63
2023-06-23T01:02:56.915Z,71.11
2023-06-23T01:05:36.680Z,70.57
2023-06-23T01:08:43.647Z,70.70
2023-06-23T01:11:29.846Z,71.12
2023-06-23T01:14:08.294Z,71.21
2023-06-23T01:16:52.071Z,70.89
2023-06-23T01:19:54.437Z,70.68
2023-06-23T01:22:38.079Z,70.46
2023-06-23T01:25:12.769Z,70.82
2023-06-23T01:28:12.210Z,70.93
2023-06-23T01:30:44.886Z,71.00
2023-06-23T01:33:19.828Z,70.96
2023-06-23T01:35:55.807Z,70.56
2023-06-23T01:38:30.910Z,70.69
2023-06-23T01:41:01.638Z,70.80
2023-06-23T01:43:31.160Z,70.78
2023-06-23T01:46:16.985Z,70.91
2023-06-23T01:48:50.064Z,70.86
2023-06-23T01:51:20.336Z,70.91
2023-06-23T01:53:51.078Z,70.54
2023-06-23T01:56:20.895Z,70.86
2023-06-23T01:58:50.526Z,71.28
2023-06-23T02:01:20.136Z,71.06
2023-06-23T02:03:50.097Z,71.22
2023-06-23T02:06:20.128Z,71.91
2023-06-23T02:08:49.614Z,71.33
2023-06-23T02:11:20.065Z,71.02
2023-06-23T02:13:48.644Z,70.86
2023-06-23T02:16:17.477Z,71.19
2023-06-23T02:18:47.253Z,71.48
2023-06-23T02:21:16.467Z,71.32
2023-06-23T02:23:45.223Z,71.40
2023-06-23T02:26:13.855Z,71.40
2023-06-23T02:28:42.695Z,71.52
2023-06-23T02:31:11.276Z,71.67
2023-06-23T02:33:39.862Z,71.64
2023-06-23T02:36:10.793Z,71.73
2023-06-23T02:38:40.407Z,72.03
2023-06-23T02:41:10.159Z,72.00
2023-06-23T02:43:45.864Z,71.93
2023-06-23T02:46:17.774Z,72.05
2023-06-23T02:48:50.818Z,71.95
2023-06-23T02:51:22.987Z,71.92
2023-06-23T02:54:05.544Z,72.05
2023-06-23T02:56:37.558Z,72.06
2023-06-23T02:59:07.683Z,71.85
2023-06-23T03:01:40.607Z,72.02
2023-06-23T03:04:08.585Z,72.04
2023-06-23T03:06:36.977Z,72.02
2023-06-23T03:09:05.161Z,71.80
2023-06-23T03:11:34.276Z,71.78
2023-06-23T03:14:02.347Z,71.82
2023-06-23T03:16:44.442Z,72.01
2023-06-23T03:19:15.275Z,72.23
2023-06-23T03:21:46.846Z,72.09
2023-06-23T03:24:15.480Z,71.99
2023-06-23T03:26:48.475Z,72.33
2023-06-23T03:29:18.825Z,72.17
2023-06-23T03:31:48.531Z,72.03
2023-06-23T03:34:18.860Z,72.12
2023-06-23T03:36:48.670Z,72.28
2023-06-23T03:39:24.953Z,72.11
2023-06-23T03:41:53.221Z,72.13
2023-06-23T03:44:26.906Z,72.27
2023-06-23T03:47:10.954Z,72.00
2023-06-23T03:49:45.678Z,71.91
2023-06-23T03:52:15.931Z,72.02
2023-06-23T03:54:46.117Z,72.28
2023-06-23T03:57:21.260Z,71.79
2023-06-23T03:59:51.985Z,71.85
2023-06-23T04:02:22.204Z,72.06
2023-06-23T04:04:54.274Z,71.84
2023-06-23T04:07:25.625Z,71.96
2023-06-23T04:09:55.108Z,71.97
2023-06-23T04:12:24.554Z,71.74
2023-06-23T04:14:54.440Z,71.63
2023-06-23T04:17:25.594Z,71.62
2023-06-23T04:19:58.235Z,71.59
2023-06-23T04:22:29.049Z,71.40
2023-06-23T04:24:59.552Z,71.28
2023-06-23T04:27:30.524Z,71.07
2023-06-23T04:30:00.491Z,71.04
2023-06-23T04:32:28.983Z,70.99
2023-06-23T04:34:56.886Z,70.87
2023-06-23T04:37:40.816Z,70.57
2023-06-23T04:40:48.683Z,70.28
2023-06-23T04:43:21.289Z,70.49
2023-06-23T04:45:59.612Z,70.22
2023-06-23T04:48:36.654Z,69.91
2023-06-23T04:51:07.631Z,69.98
2023-06-23T04:53:44.566Z,69.85
2023-06-23T04:56:17.449Z,69.69
2023-06-23T04:58:51.573Z,69.54
2023-06-23T05:01:21.545Z,69.54
2023-06-23T05:03:51.441Z,69.44
2023-06-23T05:06:21.610Z,69.30
2023-06-23T05:08:52.151Z,69.36
2023-06-23T05:11:21.973Z,69.10
2023-06-23T05:13:52.605Z,68.90
2023-06-23T05:16:22.970Z,68.82
2023-06-23T05:18:52.430Z,68.64
2023-06-23T05:21:23.197Z,68.32
2023-06-23T05:23:54.145Z,67.82
2023-06-23T05:26:24.222Z,67.30
2023-06-23T05:28:55.600Z,67.69
2023-06-23T05:31:25.853Z,67.79
2023-06-23T05:33:56.898Z,67.23
2023-06-23T05:36:25.519Z,67.53
2023-06-23T05:38:55.868Z,67.33
2023-06-23T05:41:23.955Z,67.21
2023-06-23T05:43:51.909Z,67.30
2023-06-23T05:46:24.783Z,67.26
2023-06-23T05:48:54.899Z,66.87
2023-06-23T05:51:27.127Z,65.34
2023-06-23T05:53:59.450Z,66.37
2023-06-23T05:56:32.411Z,66.45
2023-06-23T05:59:05.178Z,66.30
2023-06-23T06:01:36.089Z,66.35
2023-06-23T06:04:15.180Z,65.78
2023-06-23T06:06:45.594Z,65.71
2023-06-23T06:09:15.736Z,65.67
2023-06-23T06:11:46.346Z,65.82
2023-06-23T06:14:17.004Z,65.82
2023-06-23T06:16:47.062Z,65.95
2023-06-23T06:19:18.465Z,65.75
2023-06-23T06:21:48.368Z,65.64
2023-06-23T06:24:17.863Z,65.62
2023-06-23T06:26:47.468Z,65.43
2023-06-23T06:29:19.140Z,65.59
2023-06-23T06:31:49.179Z,65.41
2023-06-23T06:34:19.248Z,65.31
2023-06-23T06:36:48.104Z,65.31
2023-06-23T06:39:16.903Z,65.45
2023-06-23T06:41:46.341Z,65.36
2023-06-23T06:44:14.311Z,65.32
2023-06-23T06:46:44.697Z,65.44
2023-06-23T06:49:15.589Z,65.36
2023-06-23T06:51:45.378Z,65.36
2023-06-23T06:54:14.445Z,65.43
2023-06-23T06:56:43.232Z,65.28
2023-06-23T06:59:11.331Z,65.22
2023-06-23T07:01:41.067Z,65.28
2023-06-23T07:04:09.797Z,65.29
2023-06-23T07:06:38.621Z,65.43
2023-06-23T07:09:06.688Z,65.43
2023-06-23T07:11:34.879Z,65.53
2023-06-23T07:14:04.832Z,65.55
2023-06-23T07:16:34.992Z,65.79
2023-06-23T07:19:03.066Z,65.89
2023-06-23T07:21:31.141Z,65.75
2023-06-23T07:23:59.300Z,65.79
2023-06-23T07:26:27.401Z,65.90
2023-06-23T07:28:55.960Z,66.17
2023-06-23T07:31:27.020Z,66.49
2023-06-23T07:33:55.068Z,66.91
2023-06-23T07:36:23.248Z,66.64
2023-06-23T07:38:51.106Z,66.87
2023-06-23T07:41:19.170Z,68.16
2023-06-23T07:43:47.045Z,68.01
2023-06-23T07:46:15.027Z,68.24
2023-06-23T07:48:43.392Z,68.60
2023-06-23T07:51:11.271Z,68.58
2023-06-23T07:53:39.433Z,69.63
2023-06-23T07:56:07.398Z,68.96
2023-06-23T07:58:35.337Z,69.83
2023-06-23T08:01:04.152Z,69.81
2023-06-23T08:03:32.299Z,70.58
2023-06-23T08:06:00.594Z,71.81
2023-06-23T08:08:28.580Z,72.01
2023-06-23T08:10:56.769Z,72.17
2023-06-23T08:13:24.865Z,73.55
2023-06-23T08:15:53.224Z,73.76
2023-06-23T08:18:21.487Z,72.95
2023-06-23T08:20:50.645Z,75.50
2023-06-23T08:23:18.693Z,73.94
2023-06-23T08:25:46.736Z,73.57
2023-06-23T08:28:14.807Z,73.25
2023-06-23T08:30:42.970Z,73.98
2023-06-23T08:33:11.494Z,74.55
2023-06-23T08:35:39.803Z,75.99
2023-06-23T08:38:07.827Z,78.07
2023-06-23T08:40:36.083Z,77.53
2023-06-23T08:43:04.267Z,78.13
2023-06-23T08:45:35.098Z,79.51
2023-06-23T08:48:04.635Z,79.45
2023-06-23T08:50:34.199Z,79.40
2023-06-23T08:53:05.746Z,78.93
2023-06-23T08:55:34.684Z,80.30
2023-06-23T08:58:03.322Z,79.51
2023-06-23T09:00:31.719Z,80.30
2023-06-23T09:02:59.977Z,80.65
2023-06-23T09:05:28.140Z,79.56
2023-06-23T09:07:56.283Z,78.77
2023-06-23T09:10:26.165Z,79.26
2023-06-23T09:13:15.826Z,79.17
2023-06-23T09:16:00.198Z,78.33
2023-06-23T09:18:34.795Z,78.53
2023-06-23T09:21:04.237Z,79.19
2023-06-23T09:23:33.317Z,81.26
2023-06-23T09:26:05.580Z,82.21
2023-06-23T09:28:38.397Z,82.95
2023-06-23T09:31:17.298Z,83.30
2023-06-23T09:33:52.831Z,83.05
2023-06-23T09:36:21.944Z,84.32
2023-06-23T09:38:50.759Z,83.92
2023-06-23T09:41:19.402Z,83.56
2023-06-23T09:43:54.664Z,83.43
2023-06-23T09:46:24.155Z,83.15
2023-06-23T09:48:52.649Z,83.15
2023-06-23T09:51:21.709Z,83.27
2023-06-23T09:53:52.258Z,83.00
2023-06-23T09:56:22.675Z,83.00
2023-06-23T09:58:51.223Z,83.31
2023-06-23T10:01:21.361Z,83.22
2023-06-23T10:03:55.387Z,83.61
2023-06-23T10:06:28.455Z,84.27
2023-06-23T10:08:57.960Z,83.34
2023-06-23T10:11:44.704Z,83.04
2023-06-23T10:14:13.055Z,82.50
2023-06-23T10:16:45.799Z,83.59
2023-06-23T10:19:14.335Z,83.65
2023-06-23T10:21:44.288Z,83.89
2023-06-23T10:24:18.588Z,83.60
2023-06-23T10:26:48.067Z,83.60
2023-06-23T10:29:19.716Z,83.98
2023-06-23T10:31:50.588Z,83.49
2023-06-23T10:34:20.282Z,83.81
2023-06-23T10:36:53.062Z,84.05
2023-06-23T10:39:22.707Z,83.94
2023-06-23T10:41:54.286Z,83.68
2023-06-23T10:44:23.929Z,83.70
2023-06-23T10:46:52.310Z,83.55
2023-06-23T10:49:22.776Z,83.53
2023-06-23T10:51:52.748Z,83.28
2023-06-23T10:54:27.675Z,83.26
2023-06-23T10:56:56.231Z,83.23
2023-06-23T10:59:31.015Z,83.18
2023-06-23T11:02:02.155Z,82.93
2023-06-23T11:04:35.107Z,82.87
2023-06-23T11:07:09.131Z,82.58
2023-06-23T11:10:03.725Z,82.37
2023-06-23T11:12:40.563Z,82.00
2023-06-23T11:15:32.030Z,81.36
2023-06-23T11:18:06.690Z,80.83
2023-06-23T11:20:36.593Z,80.25
2023-06-23T11:23:12.767Z,80.49
2023-06-23T11:25:48.892Z,80.01
2023-06-23T11:28:26.405Z,80.01
2023-06-23T11:31:04.775Z,79.79
2023-06-23T11:33:34.857Z,79.53
2023-06-23T11:36:06.200Z,79.47
2023-06-23T11:38:35.395Z,79.29
2023-06-23T11:41:04.261Z,78.53
2023-06-23T11:43:33.824Z,77.91
2023-06-23T11:46:09.716Z,77.97
2023-06-23T11:48:38.218Z,78.37
2023-06-23T11:51:07.974Z,78.18
2023-06-23T11:53:37.307Z,77.31
2023-06-23T11:56:05.935Z,76.82
2023-06-23T11:58:35.190Z,76.34
2023-06-23T12:01:03.429Z,76.10
2023-06-23T12:03:33.021Z,76.21
2023-06-23T12:06:01.040Z,76.46
2023-06-23T12:08:29.524Z,75.87
2023-06-23T12:10:57.427Z,75.21
2023-06-23T12:13:25.669Z,74.73
2023-06-23T12:15:58.292Z,74.23
2023-06-23T12:18:27.262Z,74.64
2023-06-23T12:20:55.217Z,72.47
2023-06-23T12:23:23.275Z,73.22
2023-06-23T12:25:51.349Z,73.46
2023-06-23T12:28:20.617Z,73.56
2023-06-23T12:30:51.776Z,73.50
2023-06-23T12:33:24.773Z,72.35
2023-06-23T12:35:57.573Z,72.33
2023-06-23T12:38:25.694Z,72.25
2023-06-23T12:40:54.290Z,71.39
2023-06-23T12:43:23.388Z,71.21
2023-06-23T12:45:55.045Z,70.79
2023-06-23T12:48:24.408Z,71.23
2023-06-23T12:50:56.328Z,71.06
2023-06-23T12:53:24.402Z,70.91
2023-06-23T12:55:52.364Z,70.62
2023-06-23T12:58:20.349Z,70.37
2023-06-23T13:00:48.297Z,70.33
2023-06-23T13:03:18.691Z,69.84
2023-06-23T13:05:49.397Z,69.63
2023-06-23T13:08:18.682Z,69.41
2023-06-23T13:10:46.518Z,69.58
2023-06-23T13:13:14.638Z,69.65
2023-06-23T13:15:43.884Z,69.13
2023-06-23T13:18:12.056Z,69.06
2023-06-23T13:20:39.940Z,69.05
2023-06-23T13:23:07.993Z,68.53
2023-06-23T13:25:36.439Z,68.58
2023-06-23T13:28:05.127Z,68.19
2023-06-23T13:30:33.128Z,68.67
2023-06-23T13:33:01.260Z,68.59
2023-06-23T13:35:29.726Z,68.44
2023-06-23T13:37:59.025Z,68.19
2023-06-23T13:40:27.696Z,68.22
2023-06-23T13:42:55.834Z,68.02
2023-06-23T13:45:24.222Z,67.91
2023-06-23T13:47:52.500Z,68.10
2023-06-23T13:50:20.524Z,67.56
2023-06-23T13:52:48.526Z,67.67
2023-06-23T13:55:17.040Z,67.93
2023-06-23T13:57:46.181Z,67.85
2023-06-23T14:00:15.862Z,67.81
2023-06-23T14:02:44.229Z,67.67
2023-06-23T14:05:15.482Z,67.47
2023-06-23T14:07:43.628Z,67.54
2023-06-23T14:10:12.125Z,67.54
2023-06-23T14:12:40.170Z,67.38
2023-06-23T14:15:08.598Z,67.18
2023-06-23T14:17:37.019Z,67.46
2023-06-23T14:20:06.083Z,67.43
2023-06-23T14:22:34.285Z,67.41
2023-06-23T14:25:02.411Z,67.54
2023-06-23T14:27:30.673Z,67.43
2023-06-23T14:29:58.808Z,67.47
2023-06-23T14:32:27.095Z,67.47
2023-06-23T14:34:55.557Z,67.38
2023-06-23T14:37:23.520Z,67.39
2023-06-23T14:39:51.442Z,67.39
2023-06-23T14:42:19.494Z,67.17
2023-06-23T14:44:47.425Z,67.21
2023-06-23T14:47:15.294Z,67.22
2023-06-23T14:49:43.159Z,67.05
2023-06-23T14:52:11.325Z,67.09
2023-06-23T14:54:39.602Z,67.04
2023-06-23T14:57:07.598Z,66.86
2023-06-23T14:59:35.646Z,66.99
2023-06-23T15:02:04.416Z,67.01
2023-06-23T15:04:33.016Z,66.94
2023-06-23T15:07:01.135Z,66.98
2023-06-23T15:09:29.497Z,66.75
2023-06-23T15:11:57.733Z,66.79
2023-06-23T15:14:26.112Z,66.67
2023-06-23T15:16:54.182Z,66.66
2023-06-23T15:19:22.865Z,66.48
2023-06-23T15:21:52.370Z,66.49
2023-06-23T15:24:20.540Z,66.63
2023-06-23T15:26:48.408Z,66.64
2023-06-23T15:29:16.204Z,66.58
2023-06-23T15:31:45.383Z,66.41
2023-06-23T15:34:13.432Z,66.41
2023-06-23T15:36:41.510Z,66.50
2023-06-23T15:39:09.406Z,66.52
2023-06-23T15:41:38.373Z,66.39
2023-06-23T15:44:06.543Z,66.33
2023-06-23T15:46:34.813Z,66.43
2023-06-23T15:49:02.886Z,66.45
2023-06-23T15:51:30.999Z,66.32
2023-06-23T15:53:59.336Z,66.31
2023-06-23T15:56:27.784Z,66.35
2023-06-23T15:58:55.681Z,66.44
2023-06-23T16:01:24.773Z,66.42
2023-06-23T16:03:53.212Z,66.38
2023-06-23T16:06:21.858Z,66.41
2023-06-23T16:08:49.916Z,66.24
2023-06-23T16:11:18.081Z,66.18
2023-06-23T16:13:46.251Z,66.23
2023-06-23T16:16:14.835Z,66.32
2023-06-23T16:18:42.889Z,66.24
2023-06-23T16:21:10.896Z,66.27
2023-06-23T16:23:38.770Z,66.20
2023-06-23T16:26:06.823Z,66.05
2023-06-23T16:28:34.675Z,66.33
2023-06-23T16:31:02.582Z,66.26
2023-06-23T16:33:30.527Z,66.14
2023-06-23T16:35:58.389Z,66.04
2023-06-23T16:38:26.281Z,65.95
2023-06-23T16:40:54.225Z,66.14
2023-06-23T16:43:22.287Z,66.23
2023-06-23T16:45:50.255Z,66.19
2023-06-23T16:48:18.227Z,66.10
2023-06-23T16:50:46.838Z,66.19
2023-06-23T16:53:14.884Z,66.29
2023-06-23T16:55:42.842Z,66.20
2023-06-23T16:58:10.823Z,66.20
2023-06-23T17:00:38.819Z,66.23
2023-06-23T17:03:08.673Z,66.35
2023-06-23T17:05:38.525Z,66.40
2023-06-23T17:08:07.666Z,66.42
2023-06-23T17:10:35.787Z,66.48
2023-06-23T17:13:03.702Z,66.47
2023-06-23T17:15:31.788Z,66.71
2023-06-23T17:17:59.816Z,66.68
2023-06-23T17:20:27.753Z,66.79
2023-06-23T17:22:55.717Z,66.96
2023-06-23T17:25:23.789Z,67.12
2023-06-23T17:27:51.653Z,67.17
2023-06-23T17:30:19.829Z,67.08
2023-06-23T17:32:48.421Z,67.28
2023-06-23T17:35:16.378Z,67.34
2023-06-23T17:37:44.243Z,67.29
2023-06-23T17:40:13.378Z,67.39
2023-06-23T17:42:41.310Z,67.54
2023-06-23T17:45:10.180Z,67.53
2023-06-23T17:47:38.393Z,67.79
2023-06-23T17:50:07.225Z,67.88
2023-06-23T17:52:35.121Z,68.08
2023-06-23T17:55:03.294Z,67.98
2023-06-23T17:57:31.160Z,67.96
2023-06-23T17:59:59.132Z,68.36
2023-06-23T18:02:27.081Z,68.52
2023-06-23T18:04:55.019Z,68.59
2023-06-23T18:07:23.006Z,68.90
2023-06-23T18:09:51.109Z,69.14
2023-06-23T18:12:19.072Z,69.10
2023-06-23T18:14:46.938Z,69.15
2023-06-23T18:17:14.903Z,69.43
2023-06-23T18:19:42.872Z,69.32
2023-06-23T18:22:10.669Z,69.14
2023-06-23T18:24:38.604Z,69.12
2023-06-23T18:27:06.680Z,69.35
2023-06-23T18:29:34.556Z,69.46
2023-06-23T18:32:13.976Z,69.48
2023-06-23T18:34:42.970Z,69.54
2023-06-23T18:37:11.264Z,69.46
2023-06-23T18:39:39.225Z,69.38
2023-06-23T18:42:08.078Z,69.21
2023-06-23T18:44:36.485Z,69.14
2023-06-23T18:47:04.776Z,68.92
2023-06-23T18:49:32.743Z,68.24
2023-06-23T18:52:00.702Z,68.49
2023-06-23T18:54:28.688Z,68.26
2023-06-23T18:56:59.501Z,68.26
2023-06-23T18:59:28.017Z,68.04
2023-06-23T19:01:55.957Z,67.75
2023-06-23T19:04:24.014Z,67.95
2023-06-23T19:06:52.122Z,67.65
2023-06-23T19:09:23.126Z,67.51
2023-06-23T19:11:53.859Z,67.53
2023-06-23T19:14:21.852Z,67.29
2023-06-23T19:16:49.796Z,66.87
2023-06-23T19:19:18.407Z,66.63
2023-06-23T19:21:46.446Z,66.73
2023-06-23T19:24:14.514Z,66.47
2023-06-23T19:26:42.891Z,65.96
2023-06-23T19:29:10.889Z,66.19
2023-06-23T19:31:38.800Z,66.18
2023-06-23T19:34:07.825Z,66.14
2023-06-23T19:36:35.727Z,66.06
2023-06-23T19:39:05.197Z,65.92
2023-06-23T19:41:33.207Z,65.93
2023-06-23T19:44:01.245Z,66.07
2023-06-23T19:46:29.237Z,65.89
2023-06-23T19:48:57.890Z,65.87
2023-06-23T19:51:26.323Z,65.77
2023-06-23T19:53:54.332Z,65.69
2023-06-23T19:56:22.610Z,65.73
2023-06-23T19:58:54.391Z,65.78
2023-06-23T20:01:22.585Z,65.69
2023-06-23T20:03:51.017Z,65.41
2023-06-23T20:06:21.033Z,65.09
2023-06-23T20:08:49.203Z,65.11
2023-06-23T20:11:21.450Z,64.46
2023-06-23T20:13:51.999Z,64.06
2023-06-23T20:16:20.382Z,64.40
2023-06-23T20:18:48.453Z,64.49
2023-06-23T20:21:16.368Z,64.36
2023-06-23T20:23:44.284Z,64.18
2023-06-23T20:26:12.457Z,63.89
2023-06-23T20:28:40.320Z,63.92
2023-06-23T20:31:08.184Z,63.73
2023-06-23T20:33:36.052Z,63.40
2023-06-23T20:36:04.026Z,63.34
2023-06-23T20:38:32.200Z,63.61
2023-06-23T20:41:00.173Z,63.56
2023-06-23T20:43:28.128Z,63.30
2023-06-23T20:45:56.096Z,63.55
2023-06-23T20:48:24.036Z,63.38
2023-06-23T20:50:53.064Z,63.33
2023-06-23T20:53:20.966Z,63.26
2023-06-23T20:55:48.888Z,63.41
2023-06-23T20:58:16.968Z,63.25
2023-06-23T21:00:44.922Z,63.30
2023-06-23T21:03:12.850Z,63.43
2023-06-23T21:05:40.970Z,63.50
2023-06-23T21:08:08.939Z,63.45
2023-06-23T21:10:36.810Z,63.45
2023-06-23T21:13:05.500Z,63.42
2023-06-23T21:15:33.734Z,63.52
2023-06-23T21:18:02.275Z,63.54
2023-06-23T21:20:31.146Z,63.56
2023-06-23T21:22:59.265Z,63.74
2023-06-23T21:25:27.293Z,63.76
2023-06-23T21:27:55.286Z,63.75
2023-06-23T21:30:23.629Z,63.84
2023-06-23T21:32:51.610Z,63.73
2023-06-23T21:35:19.770Z,63.73
2023-06-23T21:37:48.147Z,63.75
2023-06-23T21:40:18.882Z,63.61
2023-06-23T21:42:47.691Z,63.79
2023-06-23T21:45:15.756Z,63.57
2023-06-23T21:47:45.129Z,63.58
2023-06-23T21:50:14.642Z,63.68
2023-06-23T21:52:43.065Z,63.69
2023-06-23T21:55:11.702Z,63.95
2023-06-23T21:57:39.687Z,63.90
2023-06-23T22:00:10.423Z,63.82
2023-06-23T22:02:38.324Z,63.98
2023-06-23T22:05:06.550Z,63.92
2023-06-23T22:07:34.518Z,63.80
2023-06-23T22:10:02.481Z,63.90
2023-06-23T22:12:30.386Z,63.98
2023-06-23T22:14:58.326Z,64.12
2023-06-23T22:17:26.239Z,64.24
2023-06-23T22:19:54.177Z,64.34
2023-06-23T22:22:22.335Z,64.17
2023-06-23T22:24:50.303Z,64.00
2023-06-23T22:27:18.167Z,64.18
2023-06-23T22:29:46.131Z,63.99
2023-06-23T22:32:14.513Z,64.20
2023-06-23T22:34:42.966Z,64.26
2023-06-23T22:37:10.955Z,64.40
2023-06-23T22:39:38.824Z,64.64
2023-06-23T22:42:07.646Z,64.34
2023-06-23T22:44:35.581Z,64.64
2023-06-23T22:47:03.555Z,64.73
2023-06-23T22:49:32.975Z,64.98
2023-06-23T22:52:00.910Z,65.16
2023-06-23T22:54:28.788Z,65.07
2023-06-23T22:56:56.743Z,65.09
2023-06-23T22:59:24.722Z,65.19
2023-06-23T23:01:52.584Z,65.14
2023-06-23T23:04:20.495Z,65.28
2023-06-23T23:06:48.746Z,65.42
2023-06-23T23:09:16.803Z,65.60
2023-06-23T23:11:44.776Z,65.58
2023-06-23T23:14:12.950Z,65.65
2023-06-23T23:16:40.918Z,65.57
2023-06-23T23:19:09.099Z,65.77
2023-06-23T23:21:39.110Z,65.79
2023-06-23T23:24:07.360Z,65.69
2023-06-23T23:26:35.248Z,65.65
2023-06-23T23:29:04.033Z,65.76
2023-06-23T23:31:33.055Z,66.26
2023-06-23T23:34:02.056Z,66.18
2023-06-23T23:36:32.649Z,66.13
2023-06-23T23:39:01.405Z,66.22
2023-06-23T23:41:29.152Z,66.25
2023-06-23T23:43:57.071Z,66.52
2023-06-23T23:46:25.395Z,66.43
2023-06-23T23:48:53.330Z,66.21
2023-06-23T23:51:21.182Z,66.21
2023-06-23T23:53:48.937Z,66.50
2023-06-23T23:56:16.910Z,66.66
2023-06-23T23:58:44.983Z,66.48
